sensor_id;sensor_type;location;lat;lon;timestamp;pressure;altitude;pressure_sealevel;temperature;humidity
35226;BME280;21813;49.686;21.766;2023-05-25T00:12:54;98736.03;;;13.34;100.00
35226;BME280;21813;49.686;21.766;2023-05-25T00:16:04;98756.63;;;13.48;100.00
35226;BME280;21813;49.686;21.766;2023-05-25T00:18:31;98738.38;;;13.37;100.00
35226;BME280;21813;49.686;21.766;2023-05-25T00:21:04;98742.91;;;13.35;100.00
35226;BME280;21813;49.686;21.766;2023-05-25T00:23:33;98750.22;;;13.41;100.00
35226;BME280;21813;49.686;21.766;2023-05-25T00:26:02;98740.94;;;13.27;100.00
35226;BME280;21813;49.686;21.766;2023-05-25T00:28:28;98749.09;;;13.34;100.00
35226;BME280;21813;49.686;21.766;2023-05-25T00:30:56;98753.41;;;13.35;100.00
35226;BME280;21813;49.686;21.766;2023-05-25T00:33:21;98771.19;;;13.41;100.00
35226;BME280;21813;49.686;21.766;2023-05-25T00:35:48;98782.81;;;13.48;100.00
35226;BME280;21813;49.686;21.766;2023-05-25T00:38:16;98741.75;;;13.28;100.00
35226;BME280;21813;49.686;21.766;2023-05-25T00:40:46;98771.38;;;13.49;100.00
35226;BME280;21813;49.686;21.766;2023-05-25T00:43:12;98752.84;;;13.41;100.00
35226;BME280;21813;49.686;21.766;2023-05-25T00:45:39;98746.06;;;13.29;100.00
35226;BME280;21813;49.686;21.766;2023-05-25T00:48:05;98737.50;;;13.27;100.00
35226;BME280;21813;49.686;21.766;2023-05-25T00:50:38;98751.28;;;13.29;100.00
35226;BME280;21813;49.686;21.766;2023-05-25T00:53:05;98747.59;;;13.32;100.00
35226;BME280;21813;49.686;21.766;2023-05-25T00:55:35;98753.41;;;13.35;100.00
35226;BME280;21813;49.686;21.766;2023-05-25T00:58:03;98747.28;;;13.25;100.00
35226;BME280;21813;49.686;21.766;2023-05-25T01:00:33;98756.97;;;13.34;100.00
35226;BME280;21813;49.686;21.766;2023-05-25T01:03:11;98744.09;;;13.21;100.00
35226;BME280;21813;49.686;21.766;2023-05-25T01:05:39;98760.91;;;13.28;100.00
35226;BME280;21813;49.686;21.766;2023-05-25T01:08:07;98743.25;;;13.21;100.00
35226;BME280;21813;49.686;21.766;2023-05-25T01:10:36;98765.09;;;13.31;100.00
35226;BME280;21813;49.686;21.766;2023-05-25T01:13:03;98768.28;;;13.35;100.00
35226;BME280;21813;49.686;21.766;2023-05-25T01:15:31;98766.59;;;13.34;100.00
35226;BME280;21813;49.686;21.766;2023-05-25T01:17:58;98748.94;;;13.26;100.00
35226;BME280;21813;49.686;21.766;2023-05-25T01:20:31;98732.81;;;13.10;100.00
35226;BME280;21813;49.686;21.766;2023-05-25T01:23:11;98724.28;;;13.08;100.00
35226;BME280;21813;49.686;21.766;2023-05-25T01:25:47;98734.53;;;13.11;100.00
35226;BME280;21813;49.686;21.766;2023-05-25T01:28:24;98733.66;;;13.10;100.00
35226;BME280;21813;49.686;21.766;2023-05-25T01:30:55;98756.34;;;13.21;100.00
35226;BME280;21813;49.686;21.766;2023-05-25T01:33:22;98733.94;;;13.07;100.00
35226;BME280;21813;49.686;21.766;2023-05-25T01:35:51;98731.44;;;13.06;100.00
35226;BME280;21813;49.686;21.766;2023-05-25T01:38:19;98726.47;;;13.03;100.00
35226;BME280;21813;49.686;21.766;2023-05-25T01:40:47;98738.44;;;13.05;100.00
35226;BME280;21813;49.686;21.766;2023-05-25T01:43:15;98738.31;;;13.07;100.00
35226;BME280;21813;49.686;21.766;2023-05-25T01:46:25;98728.50;;;12.99;100.00
35226;BME280;21813;49.686;21.766;2023-05-25T01:49:22;98727.69;;;12.99;100.00
35226;BME280;21813;49.686;21.766;2023-05-25T01:52:05;98725.06;;;12.99;100.00
35226;BME280;21813;49.686;21.766;2023-05-25T01:59:56;98736.38;;;12.99;100.00
35226;BME280;21813;49.686;21.766;2023-05-25T02:30:35;98754.41;;;13.02;100.00
35226;BME280;21813;49.686;21.766;2023-05-25T02:33:02;98754.53;;;13.01;100.00
35226;BME280;21813;49.686;21.766;2023-05-25T02:35:28;98747.94;;;12.85;100.00
35226;BME280;21813;49.686;21.766;2023-05-25T02:37:55;98769.53;;;12.99;100.00
35226;BME280;21813;49.686;21.766;2023-05-25T02:40:21;98741.19;;;12.83;100.00
35226;BME280;21813;49.686;21.766;2023-05-25T02:42:48;98772.28;;;12.97;100.00
35226;BME280;21813;49.686;21.766;2023-05-25T02:45:14;98749.75;;;12.85;100.00
35226;BME280;21813;49.686;21.766;2023-05-25T02:47:41;98776.19;;;13.03;100.00
35226;BME280;21813;49.686;21.766;2023-05-25T02:50:07;98770.50;;;12.98;100.00
35226;BME280;21813;49.686;21.766;2023-05-25T02:52:34;98764.31;;;12.99;100.00
35226;BME280;21813;49.686;21.766;2023-05-25T02:55:00;98746.53;;;12.81;100.00
35226;BME280;21813;49.686;21.766;2023-05-25T02:57:32;98747.53;;;12.80;100.00
35226;BME280;21813;49.686;21.766;2023-05-25T03:00:00;98739.78;;;12.79;100.00
35226;BME280;21813;49.686;21.766;2023-05-25T03:07:52;98745.66;;;12.71;100.00
35226;BME280;21813;49.686;21.766;2023-05-25T03:22:03;98761.38;;;12.71;100.00
35226;BME280;21813;49.686;21.766;2023-05-25T03:24:32;98769.91;;;12.73;100.00
35226;BME280;21813;49.686;21.766;2023-05-25T03:27:19;98798.81;;;12.93;100.00
35226;BME280;21813;49.686;21.766;2023-05-25T03:30:38;98793.25;;;12.86;100.00
35226;BME280;21813;49.686;21.766;2023-05-25T03:33:08;98800.72;;;12.91;100.00
35226;BME280;21813;49.686;21.766;2023-05-25T03:35:35;98787.34;;;12.84;100.00
35226;BME280;21813;49.686;21.766;2023-05-25T03:38:01;98779.16;;;12.77;100.00
35226;BME280;21813;49.686;21.766;2023-05-25T03:40:27;98775.59;;;12.78;100.00
35226;BME280;21813;49.686;21.766;2023-05-25T03:42:54;98776.16;;;12.82;100.00
35226;BME280;21813;49.686;21.766;2023-05-25T03:45:20;98796.31;;;12.91;100.00
35226;BME280;21813;49.686;21.766;2023-05-25T03:48:05;98770.63;;;12.75;100.00
35226;BME280;21813;49.686;21.766;2023-05-25T03:51:34;98796.59;;;12.88;100.00
35226;BME280;21813;49.686;21.766;2023-05-25T03:54:01;98759.94;;;12.67;100.00
35226;BME280;21813;49.686;21.766;2023-05-25T03:56:29;98789.13;;;12.83;100.00
35226;BME280;21813;49.686;21.766;2023-05-25T04:06:54;98810.34;;;12.90;100.00
35226;BME280;21813;49.686;21.766;2023-05-25T04:35:36;98831.34;;;12.79;100.00
35226;BME280;21813;49.686;21.766;2023-05-25T04:38:03;98801.91;;;12.66;100.00
35226;BME280;21813;49.686;21.766;2023-05-25T04:40:29;98817.69;;;12.75;100.00
35226;BME280;21813;49.686;21.766;2023-05-25T04:43:00;98823.50;;;12.79;100.00
35226;BME280;21813;49.686;21.766;2023-05-25T04:45:26;98790.88;;;12.62;100.00
35226;BME280;21813;49.686;21.766;2023-05-25T04:48:00;98817.09;;;12.72;100.00
35226;BME280;21813;49.686;21.766;2023-05-25T04:50:27;98823.88;;;12.74;100.00
35226;BME280;21813;49.686;21.766;2023-05-25T04:52:53;98829.56;;;12.79;100.00
35226;BME280;21813;49.686;21.766;2023-05-25T04:55:36;98830.06;;;12.73;100.00
35226;BME280;21813;49.686;21.766;2023-05-25T05:09:27;98843.69;;;12.88;100.00
35226;BME280;21813;49.686;21.766;2023-05-25T05:12:27;98824.56;;;12.76;100.00
35226;BME280;21813;49.686;21.766;2023-05-25T05:14:53;98824.44;;;12.78;100.00
35226;BME280;21813;49.686;21.766;2023-05-25T05:17:20;98824.34;;;12.79;100.00
35226;BME280;21813;49.686;21.766;2023-05-25T05:28:42;98847.59;;;12.94;100.00
35226;BME280;21813;49.686;21.766;2023-05-25T05:31:09;98824.81;;;12.73;100.00
35226;BME280;21813;49.686;21.766;2023-05-25T05:36:56;98846.88;;;12.92;100.00
35226;BME280;21813;49.686;21.766;2023-05-25T05:39:25;98842.59;;;12.91;100.00
35226;BME280;21813;49.686;21.766;2023-05-25T05:41:57;98832.88;;;12.81;100.00
35226;BME280;21813;49.686;21.766;2023-05-25T05:44:40;98863.84;;;12.97;100.00
35226;BME280;21813;49.686;21.766;2023-05-25T05:51:04;98838.44;;;12.88;100.00
35226;BME280;21813;49.686;21.766;2023-05-25T05:53:31;98824.34;;;12.79;100.00
35226;BME280;21813;49.686;21.766;2023-05-25T05:55:57;98830.41;;;12.80;100.00
35226;BME280;21813;49.686;21.766;2023-05-25T05:58:25;98841.31;;;12.85;100.00
35226;BME280;21813;49.686;21.766;2023-05-25T06:00:55;98860.97;;;13.00;100.00
35226;BME280;21813;49.686;21.766;2023-05-25T06:03:36;98839.28;;;12.89;100.00
35226;BME280;21813;49.686;21.766;2023-05-25T06:06:03;98855.19;;;12.97;100.00
35226;BME280;21813;49.686;21.766;2023-05-25T06:08:45;98877.72;;;13.09;100.00
35226;BME280;21813;49.686;21.766;2023-05-25T06:11:13;98870.38;;;13.03;100.00
35226;BME280;21813;49.686;21.766;2023-05-25T06:13:38;98848.66;;;12.91;100.00
35226;BME280;21813;49.686;21.766;2023-05-25T06:16:06;98881.06;;;13.11;100.00
35226;BME280;21813;49.686;21.766;2023-05-25T06:18:32;98868.44;;;13.05;100.00
35226;BME280;21813;49.686;21.766;2023-05-25T06:21:00;98856.66;;;12.90;100.00
35226;BME280;21813;49.686;21.766;2023-05-25T06:23:26;98892.47;;;13.10;100.00
35226;BME280;21813;49.686;21.766;2023-05-25T06:25:53;98867.75;;;13.03;100.00
35226;BME280;21813;49.686;21.766;2023-05-25T06:28:19;98854.47;;;12.95;100.00
35226;BME280;21813;49.686;21.766;2023-05-25T06:30:48;98886.19;;;13.12;100.00
35226;BME280;21813;49.686;21.766;2023-05-25T06:33:13;98864.69;;;12.98;100.00
35226;BME280;21813;49.686;21.766;2023-05-25T06:35:40;98862.75;;;13.00;100.00
35226;BME280;21813;49.686;21.766;2023-05-25T06:38:06;98880.59;;;13.06;100.00
35226;BME280;21813;49.686;21.766;2023-05-25T06:40:33;98862.75;;;13.00;100.00
35226;BME280;21813;49.686;21.766;2023-05-25T06:42:59;98889.84;;;13.10;100.00
35226;BME280;21813;49.686;21.766;2023-05-25T06:45:26;98893.78;;;13.15;100.00
35226;BME280;21813;49.686;21.766;2023-05-25T06:47:52;98898.06;;;13.16;100.00
35226;BME280;21813;49.686;21.766;2023-05-25T06:50:20;98883.59;;;13.12;100.00
35226;BME280;21813;49.686;21.766;2023-05-25T06:52:45;98890.22;;;13.16;100.00
35226;BME280;21813;49.686;21.766;2023-05-25T06:55:13;98879.38;;;13.10;100.00
35226;BME280;21813;49.686;21.766;2023-05-25T06:57:39;98861.97;;;12.99;100.00
35226;BME280;21813;49.686;21.766;2023-05-25T07:00:06;98882.81;;;13.10;100.00
35226;BME280;21813;49.686;21.766;2023-05-25T07:02:34;98904.59;;;13.22;100.00
35226;BME280;21813;49.686;21.766;2023-05-25T07:05:02;98884.41;;;13.13;100.00
35226;BME280;21813;49.686;21.766;2023-05-25T07:07:30;98888.94;;;13.11;100.00
35226;BME280;21813;49.686;21.766;2023-05-25T07:09:57;98890.06;;;13.18;100.00
35226;BME280;21813;49.686;21.766;2023-05-25T07:12:22;98906.00;;;13.26;100.00
35226;BME280;21813;49.686;21.766;2023-05-25T07:14:49;98896.84;;;13.20;100.00
35226;BME280;21813;49.686;21.766;2023-05-25T07:17:15;98896.84;;;13.20;100.00
35226;BME280;21813;49.686;21.766;2023-05-25T07:19:42;98900.53;;;13.18;100.00
35226;BME280;21813;49.686;21.766;2023-05-25T07:22:08;98911.72;;;13.20;100.00
35226;BME280;21813;49.686;21.766;2023-05-25T07:24:38;98920.88;;;13.25;100.00
35226;BME280;21813;49.686;21.766;2023-05-25T07:27:04;98913.41;;;13.21;100.00
35226;BME280;21813;49.686;21.766;2023-05-25T07:29:31;98921.19;;;13.32;100.00
35226;BME280;21813;49.686;21.766;2023-05-25T07:31:57;98928.34;;;13.30;100.00
35226;BME280;21813;49.686;21.766;2023-05-25T07:34:26;98913.41;;;13.21;100.00
35226;BME280;21813;49.686;21.766;2023-05-25T07:36:52;98925.53;;;13.22;100.00
35226;BME280;21813;49.686;21.766;2023-05-25T07:39:19;98908.66;;;13.15;100.00
35226;BME280;21813;49.686;21.766;2023-05-25T07:41:44;98942.97;;;13.33;100.00
35226;BME280;21813;49.686;21.766;2023-05-25T07:44:11;98924.31;;;13.26;100.00
35226;BME280;21813;49.686;21.766;2023-05-25T07:46:37;98936.91;;;13.32;100.00
35226;BME280;21813;49.686;21.766;2023-05-25T07:49:03;98929.69;;;13.24;100.00
35226;BME280;21813;49.686;21.766;2023-05-25T07:51:30;98926.94;;;13.26;100.00
35226;BME280;21813;49.686;21.766;2023-05-25T07:53:58;98935.50;;;13.28;100.00
35226;BME280;21813;49.686;21.766;2023-05-25T07:56:24;98933.59;;;13.30;100.00
35226;BME280;21813;49.686;21.766;2023-05-25T07:58:51;98932.50;;;13.33;100.00
35226;BME280;21813;49.686;21.766;2023-05-25T08:01:17;98931.66;;;13.32;100.00
35226;BME280;21813;49.686;21.766;2023-05-25T08:03:45;98935.81;;;13.35;100.00
35226;BME280;21813;49.686;21.766;2023-05-25T08:06:10;98941.25;;;13.43;100.00
35226;BME280;21813;49.686;21.766;2023-05-25T08:08:38;98918.34;;;13.35;100.00
35226;BME280;21813;49.686;21.766;2023-05-25T08:11:06;98944.22;;;13.49;100.00
35226;BME280;21813;49.686;21.766;2023-05-25T08:13:33;98940.63;;;13.50;100.00
35226;BME280;21813;49.686;21.766;2023-05-25T08:15:59;98933.75;;;13.49;100.00
35226;BME280;21813;49.686;21.766;2023-05-25T08:18:25;98950.03;;;13.53;100.00
35226;BME280;21813;49.686;21.766;2023-05-25T08:20:51;98913.22;;;13.34;100.00
35226;BME280;21813;49.686;21.766;2023-05-25T08:23:17;98946.44;;;13.54;100.00
35226;BME280;21813;49.686;21.766;2023-05-25T08:25:43;98929.94;;;13.42;100.00
35226;BME280;21813;49.686;21.766;2023-05-25T08:28:10;98960.00;;;13.59;100.00
35226;BME280;21813;49.686;21.766;2023-05-25T08:30:36;98929.00;;;13.43;100.00
35226;BME280;21813;49.686;21.766;2023-05-25T08:33:03;98942.06;;;13.54;100.00
35226;BME280;21813;49.686;21.766;2023-05-25T08:35:29;98950.78;;;13.64;100.00
35226;BME280;21813;49.686;21.766;2023-05-25T08:37:56;98929.34;;;13.50;100.00
35226;BME280;21813;49.686;21.766;2023-05-25T08:40:25;98960.06;;;13.68;100.00
35226;BME280;21813;49.686;21.766;2023-05-25T08:42:53;98937.25;;;13.59;100.00
35226;BME280;21813;49.686;21.766;2023-05-25T08:45:18;98955.13;;;13.75;100.00
35226;BME280;21813;49.686;21.766;2023-05-25T08:47:47;98927.84;;;13.57;100.00
35226;BME280;21813;49.686;21.766;2023-05-25T08:50:13;98943.38;;;13.69;100.00
35226;BME280;21813;49.686;21.766;2023-05-25T08:52:44;98945.50;;;13.76;100.00
35226;BME280;21813;49.686;21.766;2023-05-25T08:55:21;98943.13;;;13.73;100.00
35226;BME280;21813;49.686;21.766;2023-05-25T08:58:01;98956.16;;;13.84;100.00
35226;BME280;21813;49.686;21.766;2023-05-25T09:00:33;98948.56;;;13.81;100.00
35226;BME280;21813;49.686;21.766;2023-05-25T09:03:14;98953.53;;;13.84;100.00
35226;BME280;21813;49.686;21.766;2023-05-25T09:05:40;98935.00;;;13.76;100.00
35226;BME280;21813;49.686;21.766;2023-05-25T09:08:07;98938.06;;;13.81;100.00
35226;BME280;21813;49.686;21.766;2023-05-25T09:10:37;98940.44;;;13.84;100.00
35226;BME280;21813;49.686;21.766;2023-05-25T09:13:04;98945.88;;;13.92;100.00
35226;BME280;21813;49.686;21.766;2023-05-25T09:15:31;98940.63;;;13.92;100.00
35226;BME280;21813;49.686;21.766;2023-05-25T09:17:57;98938.03;;;13.92;100.00
35226;BME280;21813;49.686;21.766;2023-05-25T09:20:23;98943.00;;;13.95;100.00
35226;BME280;21813;49.686;21.766;2023-05-25T09:22:58;98957.44;;;14.10;100.00
35226;BME280;21813;49.686;21.766;2023-05-25T09:25:25;98961.69;;;14.11;100.00
35226;BME280;21813;49.686;21.766;2023-05-25T09:27:53;98939.31;;;14.07;100.00
35226;BME280;21813;49.686;21.766;2023-05-25T09:30:24;98946.78;;;14.11;100.00
35226;BME280;21813;49.686;21.766;2023-05-25T09:32:54;98951.66;;;14.16;100.00
35226;BME280;21813;49.686;21.766;2023-05-25T09:35:19;98954.16;;;14.18;100.00
35226;BME280;21813;49.686;21.766;2023-05-25T09:37:52;98975.84;;;14.29;100.00
35226;BME280;21813;49.686;21.766;2023-05-25T09:40:19;98968.97;;;14.28;100.00
35226;BME280;21813;49.686;21.766;2023-05-25T09:42:46;98958.72;;;14.25;100.00
35226;BME280;21813;49.686;21.766;2023-05-25T09:45:12;98977.91;;;14.46;100.00
35226;BME280;21813;49.686;21.766;2023-05-25T09:47:39;98958.41;;;14.39;100.00
35226;BME280;21813;49.686;21.766;2023-05-25T09:50:05;98969.66;;;14.51;100.00
35226;BME280;21813;49.686;21.766;2023-05-25T09:52:37;98977.09;;;14.46;100.00
35226;BME280;21813;49.686;21.766;2023-05-25T09:55:03;98946.63;;;14.34;100.00
35226;BME280;21813;49.686;21.766;2023-05-25T09:57:35;98956.63;;;14.40;100.00
35226;BME280;21813;49.686;21.766;2023-05-25T10:00:07;98981.25;;;14.58;100.00
35226;BME280;21813;49.686;21.766;2023-05-25T10:02:42;98954.75;;;14.51;100.00
35226;BME280;21813;49.686;21.766;2023-05-25T10:05:11;98979.22;;;14.71;100.00
35226;BME280;21813;49.686;21.766;2023-05-25T10:07:38;98963.63;;;14.70;100.00
35226;BME280;21813;49.686;21.766;2023-05-25T10:10:07;98964.88;;;14.66;100.00
35226;BME280;21813;49.686;21.766;2023-05-25T10:12:35;98970.84;;;14.77;100.00
35226;BME280;21813;49.686;21.766;2023-05-25T10:15:03;98944.56;;;14.68;100.00
35226;BME280;21813;49.686;21.766;2023-05-25T10:17:30;98961.69;;;14.72;100.00
35226;BME280;21813;49.686;21.766;2023-05-25T10:20:00;98945.28;;;14.70;100.00
35226;BME280;21813;49.686;21.766;2023-05-25T10:22:47;98953.81;;;14.72;100.00
35226;BME280;21813;49.686;21.766;2023-05-25T10:25:53;98955.34;;;14.65;100.00
35226;BME280;21813;49.686;21.766;2023-05-25T10:28:29;98956.19;;;14.75;100.00
35226;BME280;21813;49.686;21.766;2023-05-25T10:30:59;98954.56;;;14.83;100.00
35226;BME280;21813;49.686;21.766;2023-05-25T10:33:28;98952.59;;;14.76;100.00
35226;BME280;21813;49.686;21.766;2023-05-25T10:35:55;98956.59;;;14.80;100.00
35226;BME280;21813;49.686;21.766;2023-05-25T10:38:24;98962.97;;;14.87;100.00
35226;BME280;21813;49.686;21.766;2023-05-25T10:41:08;98958.56;;;14.87;100.00
35226;BME280;21813;49.686;21.766;2023-05-25T10:48:36;98942.09;;;14.76;100.00
35226;BME280;21813;49.686;21.766;2023-05-25T10:51:05;98916.22;;;14.62;100.00
35226;BME280;21813;49.686;21.766;2023-05-25T10:54:11;98922.72;;;14.57;100.00
35226;BME280;21813;49.686;21.766;2023-05-25T11:01:22;98951.25;;;14.91;100.00
35226;BME280;21813;49.686;21.766;2023-05-25T11:04:17;98948.09;;;14.97;100.00
35226;BME280;21813;49.686;21.766;2023-05-25T11:07:03;98931.53;;;15.06;100.00
35226;BME280;21813;49.686;21.766;2023-05-25T11:09:57;98937.03;;;15.13;100.00
35226;BME280;21813;49.686;21.766;2023-05-25T11:12:25;98908.44;;;15.00;100.00
35226;BME280;21813;49.686;21.766;2023-05-25T11:15:11;98938.03;;;15.21;100.00
35226;BME280;21813;49.686;21.766;2023-05-25T11:17:56;98919.06;;;15.08;100.00
35226;BME280;21813;49.686;21.766;2023-05-25T11:20:27;98920.88;;;15.17;100.00
35226;BME280;21813;49.686;21.766;2023-05-25T11:23:12;98942.47;;;15.30;100.00
35226;BME280;21813;49.686;21.766;2023-05-25T11:26:03;98927.38;;;15.23;100.00
35226;BME280;21813;49.686;21.766;2023-05-25T11:28:32;98919.50;;;15.23;100.00
35226;BME280;21813;49.686;21.766;2023-05-25T11:31:08;98909.94;;;15.22;100.00
35226;BME280;21813;49.686;21.766;2023-05-25T11:33:55;98934.00;;;15.36;100.00
35226;BME280;21813;49.686;21.766;2023-05-25T11:38:54;98923.78;;;15.43;100.00
35226;BME280;21813;49.686;21.766;2023-05-25T11:41:22;98932.75;;;15.50;100.00
35226;BME280;21813;49.686;21.766;2023-05-25T11:43:49;98917.56;;;15.44;100.00
35226;BME280;21813;49.686;21.766;2023-05-25T11:46:20;98921.41;;;15.49;100.00
35226;BME280;21813;49.686;21.766;2023-05-25T11:49:54;98928.34;;;15.60;100.00
35226;BME280;21813;49.686;21.766;2023-05-25T11:52:21;98919.50;;;15.61;100.00
35226;BME280;21813;49.686;21.766;2023-05-25T11:55:33;98911.75;;;15.60;100.00
35226;BME280;21813;49.686;21.766;2023-05-25T11:57:59;98913.13;;;15.64;100.00
35226;BME280;21813;49.686;21.766;2023-05-25T12:00:26;98894.91;;;15.62;100.00
35226;BME280;21813;49.686;21.766;2023-05-25T12:02:54;98908.41;;;15.77;100.00
35226;BME280;21813;49.686;21.766;2023-05-25T12:05:20;98887.09;;;15.80;100.00
35226;BME280;21813;49.686;21.766;2023-05-25T12:07:49;98892.31;;;15.99;100.00
35226;BME280;21813;49.686;21.766;2023-05-25T12:10:15;98912.72;;;16.15;100.00
35226;BME280;21813;49.686;21.766;2023-05-25T12:12:47;98906.06;;;16.20;100.00
35226;BME280;21813;49.686;21.766;2023-05-25T12:15:20;98881.31;;;16.13;100.00
35226;BME280;21813;49.686;21.766;2023-05-25T12:17:48;98893.88;;;16.19;100.00
35226;BME280;21813;49.686;21.766;2023-05-25T12:20:15;98877.69;;;16.14;100.00
35226;BME280;21813;49.686;21.766;2023-05-25T12:22:46;98889.59;;;16.18;100.00
35226;BME280;21813;49.686;21.766;2023-05-25T12:25:18;98884.63;;;16.15;100.00
35226;BME280;21813;49.686;21.766;2023-05-25T12:27:45;98881.31;;;16.13;100.00
35226;BME280;21813;49.686;21.766;2023-05-25T12:30:11;98885.97;;;16.19;100.00
35226;BME280;21813;49.686;21.766;2023-05-25T12:33:12;98876.75;;;16.06;100.00
35226;BME280;21813;49.686;21.766;2023-05-25T12:35:47;98887.16;;;16.07;100.00
35226;BME280;21813;49.686;21.766;2023-05-25T12:39:05;98876.75;;;16.06;100.00
35226;BME280;21813;49.686;21.766;2023-05-25T12:45:41;98866.31;;;16.23;100.00
35226;BME280;21813;49.686;21.766;2023-05-25T12:48:08;98890.84;;;16.42;100.00
35226;BME280;21813;49.686;21.766;2023-05-25T12:50:38;98890.13;;;16.49;100.00
35226;BME280;21813;49.686;21.766;2023-05-25T12:53:25;98878.78;;;16.49;100.00
35226;BME280;21813;49.686;21.766;2023-05-25T12:59:30;98875.84;;;16.52;100.00
35226;BME280;21813;49.686;21.766;2023-05-25T13:13:41;98834.69;;;16.60;100.00
35226;BME280;21813;49.686;21.766;2023-05-25T13:23:30;98864.19;;;16.82;100.00
35226;BME280;21813;49.686;21.766;2023-05-25T13:26:04;98840.25;;;16.75;100.00
35226;BME280;21813;49.686;21.766;2023-05-25T13:28:47;98818.81;;;16.70;100.00
35226;BME280;21813;49.686;21.766;2023-05-25T13:31:58;98819.19;;;16.75;100.00
35226;BME280;21813;49.686;21.766;2023-05-25T13:38:25;98829.84;;;16.83;100.00
35226;BME280;21813;49.686;21.766;2023-05-25T13:51:54;98834.31;;;17.08;100.00
35226;BME280;21813;49.686;21.766;2023-05-25T13:54:20;98824.09;;;17.05;100.00
35226;BME280;21813;49.686;21.766;2023-05-25T13:56:53;98795.03;;;16.97;100.00
35226;BME280;21813;49.686;21.766;2023-05-25T14:00:18;98806.63;;;17.04;100.00
35226;BME280;21813;49.686;21.766;2023-05-25T14:06:16;98829.66;;;17.20;100.00
35226;BME280;21813;49.686;21.766;2023-05-25T14:08:44;98819.66;;;17.06;100.00
35226;BME280;21813;49.686;21.766;2023-05-25T14:11:09;98832.66;;;17.07;100.00
35226;BME280;21813;49.686;21.766;2023-05-25T14:13:37;98841.63;;;17.14;100.00
35226;BME280;21813;49.686;21.766;2023-05-25T14:16:18;98828.75;;;17.11;100.00
35226;BME280;21813;49.686;21.766;2023-05-25T14:19:17;98844.53;;;17.11;100.00
35226;BME280;21813;49.686;21.766;2023-05-25T14:22:24;98844.53;;;17.11;100.00
35226;BME280;21813;49.686;21.766;2023-05-25T14:25:00;98838.56;;;17.01;100.00
35226;BME280;21813;49.686;21.766;2023-05-25T14:27:36;98819.00;;;16.86;100.00
35226;BME280;21813;49.686;21.766;2023-05-25T14:30:12;98836.38;;;16.97;100.00
35226;BME280;21813;49.686;21.766;2023-05-25T14:33:10;98822.66;;;16.93;100.00
35226;BME280;21813;49.686;21.766;2023-05-25T14:35:41;98852.75;;;17.08;100.00
35226;BME280;21813;49.686;21.766;2023-05-25T14:38:35;98844.94;;;16.99;100.00
35226;BME280;21813;49.686;21.766;2023-05-25T14:41:10;98831.38;;;16.94;100.00
35226;BME280;21813;49.686;21.766;2023-05-25T14:43:37;98831.09;;;16.97;100.00
35226;BME280;21813;49.686;21.766;2023-05-25T14:46:06;98817.66;;;16.82;100.00
35226;BME280;21813;49.686;21.766;2023-05-25T14:48:37;98840.56;;;16.90;100.00
35226;BME280;21813;49.686;21.766;2023-05-25T14:51:08;98841.72;;;16.87;100.00
35226;BME280;21813;49.686;21.766;2023-05-25T14:53:38;98841.53;;;16.89;100.00
35226;BME280;21813;49.686;21.766;2023-05-25T14:56:04;98834.53;;;16.79;100.00
35226;BME280;21813;49.686;21.766;2023-05-25T14:58:31;98834.09;;;16.84;100.00
35226;BME280;21813;49.686;21.766;2023-05-25T15:00:57;98814.91;;;16.74;100.00
35226;BME280;21813;49.686;21.766;2023-05-25T15:03:27;98822.34;;;16.78;100.00
35226;BME280;21813;49.686;21.766;2023-05-25T15:06:04;98817.91;;;16.79;100.00
35226;BME280;21813;49.686;21.766;2023-05-25T15:08:32;98836.00;;;16.92;100.00
35226;BME280;21813;49.686;21.766;2023-05-25T15:10:58;98821.56;;;16.78;100.00
35226;BME280;21813;49.686;21.766;2023-05-25T15:13:25;98811.03;;;16.78;100.00
35226;BME280;21813;49.686;21.766;2023-05-25T15:15:51;98840.88;;;16.87;100.00
35226;BME280;21813;49.686;21.766;2023-05-25T15:18:21;98834.66;;;16.88;100.00
35226;BME280;21813;49.686;21.766;2023-05-25T15:20:46;98845.00;;;16.89;100.00
35226;BME280;21813;49.686;21.766;2023-05-25T15:23:14;98840.06;;;16.86;100.00
35226;BME280;21813;49.686;21.766;2023-05-25T15:25:39;98835.91;;;16.84;100.00
35226;BME280;21813;49.686;21.766;2023-05-25T15:28:05;98829.34;;;16.70;100.00
35226;BME280;21813;49.686;21.766;2023-05-25T15:30:31;98850.06;;;16.83;100.00
35226;BME280;21813;49.686;21.766;2023-05-25T15:33:00;98841.94;;;16.76;100.00
35226;BME280;21813;49.686;21.766;2023-05-25T15:35:26;98849.91;;;16.84;100.00
35226;BME280;21813;49.686;21.766;2023-05-25T15:37:57;98834.63;;;16.70;100.00
35226;BME280;21813;49.686;21.766;2023-05-25T15:40:23;98842.91;;;16.75;100.00
35226;BME280;21813;49.686;21.766;2023-05-25T15:42:49;98845.53;;;16.75;100.00
35226;BME280;21813;49.686;21.766;2023-05-25T15:45:15;98825.38;;;16.66;100.00
35226;BME280;21813;49.686;21.766;2023-05-25T15:47:41;98847.19;;;16.76;100.00
35226;BME280;21813;49.686;21.766;2023-05-25T15:50:07;98844.88;;;16.73;100.00
35226;BME280;21813;49.686;21.766;2023-05-25T15:52:34;98832.59;;;16.64;100.00
35226;BME280;21813;49.686;21.766;2023-05-25T15:54:59;98842.44;;;16.62;100.00
35226;BME280;21813;49.686;21.766;2023-05-25T15:57:26;98826.41;;;16.55;100.00
35226;BME280;21813;49.686;21.766;2023-05-25T15:59:52;98850.41;;;16.70;100.00
35226;BME280;21813;49.686;21.766;2023-05-25T16:02:19;98848.41;;;16.64;100.00
35226;BME280;21813;49.686;21.766;2023-05-25T16:04:45;98854.63;;;16.63;100.00